Juergen K — PBKV — position and weather

sailwx.info

Track history (hours):
 
Tides and Currents Weather Stations Pressure Air Temp Water Temp Dewpoint Dewpoint Depression Visibility Wind Speed Wind Dir Waves Ship Positions

Juergen K

Last reported at 2015-Jan-21 15:22 UTC. Time now 2015-Feb-01 04:08 UTC.
Position N 39°08' W 009°48'.
Warning: this ship's position is 10 days out of date.

Length 89 m; draft 5.4 m.

Type: Cargo ship. MMSI: 244329000.

Date/timePositionNaut miles runAvg speedWind from/ knotsBaromVisibWave heightAir tempDewpointWater temp
2015-Jan-21 15:22N 39°08' W 009°48'13 6.1
2015-Jan-21 13:15N 38°55' W 009°50'8 6.7
2015-Jan-21 12:06N 38°48' W 009°50'4 6.9
2015-Jan-21 11:33N 38°44' W 009°50'6 6.3
2015-Jan-21 10:33N 38°38' W 009°48'6 6.4
2015-Jan-21 09:34N 38°35' W 009°41'6 6.1
2015-Jan-21 08:33N 38°29' W 009°39'6 6.4
2015-Jan-21 07:33N 38°22' W 009°37'7 6.5
2015-Jan-21 06:32N 38°16' W 009°36'6 6.5
2015-Jan-21 05:33N 38°09' W 009°35'13 6.7
2015-Jan-21 03:33N 37°56' W 009°31'7 6.6
2015-Jan-21 02:33N 37°50' W 009°30'7 6.5
2015-Jan-21 01:33N 37°43' W 009°29'7 6.6
2015-Jan-21 00:33N 37°37' W 009°28'214 6.7
2015-Jan-19 16:33N 35°59' W 005°29'9 6.9
2015-Jan-19 15:19N 35°55' W 005°20'1 1.9
2015-Jan-19 14:33N 35°54' W 005°19'0 0.0
2015-Jan-19 13:34N 35°54' W 005°19'0 0.0
2015-Jan-19 12:33N 35°54' W 005°19'0 0.0
2015-Jan-19 11:34N 35°54' W 005°19'1 0.7
2015-Jan-19 10:34N 35°54' W 005°19'2 2.1
2015-Jan-19 09:32N 35°56' W 005°17'  
2015-Jan-15 21:13N 38°46' E 007°39'8 9.2
2015-Jan-15 20:19N 38°48' E 007°49'9 9.5
2015-Jan-15 19:19N 38°51' E 008°01'25 8.5
2015-Jan-15 16:22N 39°03' E 008°28'11 0.2
2015-Jan-13 19:32N 38°60' E 008°15'1410.8
2015-Jan-13 18:16N 39°06' E 007°59'19111.1
2015-Jan-13 01:06N 40°30' E 004°16'810.7
2015-Jan-13 00:19N 40°34' E 004°06'3010.7
2015-Jan-12 21:33N 40°47' E 003°31'1110.5
2015-Jan-12 20:33N 40°51' E 003°18'1110.6
2015-Jan-12 19:33N 40°56' E 003°06'1110.6
2015-Jan-12 18:33N 41°01' E 002°53'1110.5
2015-Jan-12 17:33N 41°06' E 002°41'1010.0
2015-Jan-12 16:33N 41°10' E 002°29'1110.6
2015-Jan-12 15:33N 41°15' E 002°16'8 3.9
2015-Jan-12 13:26N 41°21' E 002°09'0 0.0
2015-Jan-12 09:20N 41°21' E 002°09'0 0.0
2015-Jan-12 07:20N 41°21' E 002°09'1 0.3
2015-Jan-12 03:09N 41°20' E 002°10'6 6.2
2015-Jan-12 02:13N 41°19' E 002°18'36 9.6
2015-Jan-11 22:27N 41°34' E 003°02'46 9.2
2015-Jan-11 17:25N 42°09' E 003°42'6 5.9
2015-Jan-11 16:26N 42°11' E 003°49'  
Track history (hours):
 
Tides and Currents Weather Stations Pressure Air Temp Water Temp Dewpoint Dewpoint Depression Visibility Wind Speed Wind Dir Waves Ship Positions

Juergen K

Last reported at 2015-Jan-21 15:22 UTC. Time now 2015-Feb-01 04:08 UTC.
Position N 39°08' W 009°48'.
Warning: this ship's position is 10 days out of date.

Length 89 m; draft 5.4 m.

Type: Cargo ship. MMSI: 244329000.

Date/timePositionNaut miles runAvg speedWind from/ knotsBaromVisibWave heightAir tempDewpointWater temp
2015-Jan-21 15:22N 39°08' W 009°48'13 6.1
2015-Jan-21 13:15N 38°55' W 009°50'8 6.7
2015-Jan-21 12:06N 38°48' W 009°50'4 6.9
2015-Jan-21 11:33N 38°44' W 009°50'6 6.3
2015-Jan-21 10:33N 38°38' W 009°48'6 6.4
2015-Jan-21 09:34N 38°35' W 009°41'6 6.1
2015-Jan-21 08:33N 38°29' W 009°39'6 6.4
2015-Jan-21 07:33N 38°22' W 009°37'7 6.5
2015-Jan-21 06:32N 38°16' W 009°36'6 6.5
2015-Jan-21 05:33N 38°09' W 009°35'13 6.7
2015-Jan-21 03:33N 37°56' W 009°31'7 6.6
2015-Jan-21 02:33N 37°50' W 009°30'7 6.5
2015-Jan-21 01:33N 37°43' W 009°29'7 6.6
2015-Jan-21 00:33N 37°37' W 009°28'214 6.7
2015-Jan-19 16:33N 35°59' W 005°29'9 6.9
2015-Jan-19 15:19N 35°55' W 005°20'1 1.9
2015-Jan-19 14:33N 35°54' W 005°19'0 0.0
2015-Jan-19 13:34N 35°54' W 005°19'0 0.0
2015-Jan-19 12:33N 35°54' W 005°19'0 0.0
2015-Jan-19 11:34N 35°54' W 005°19'1 0.7
2015-Jan-19 10:34N 35°54' W 005°19'2 2.1
2015-Jan-19 09:32N 35°56' W 005°17'  
2015-Jan-15 21:13N 38°46' E 007°39'8 9.2
2015-Jan-15 20:19N 38°48' E 007°49'9 9.5
2015-Jan-15 19:19N 38°51' E 008°01'25 8.5
2015-Jan-15 16:22N 39°03' E 008°28'11 0.2
2015-Jan-13 19:32N 38°60' E 008°15'1410.8
2015-Jan-13 18:16N 39°06' E 007°59'19111.1
2015-Jan-13 01:06N 40°30' E 004°16'810.7
2015-Jan-13 00:19N 40°34' E 004°06'3010.7
2015-Jan-12 21:33N 40°47' E 003°31'1110.5
2015-Jan-12 20:33N 40°51' E 003°18'1110.6
2015-Jan-12 19:33N 40°56' E 003°06'1110.6
2015-Jan-12 18:33N 41°01' E 002°53'1110.5
2015-Jan-12 17:33N 41°06' E 002°41'1010.0
2015-Jan-12 16:33N 41°10' E 002°29'1110.6
2015-Jan-12 15:33N 41°15' E 002°16'8 3.9
2015-Jan-12 13:26N 41°21' E 002°09'0 0.0
2015-Jan-12 09:20N 41°21' E 002°09'0 0.0
2015-Jan-12 07:20N 41°21' E 002°09'1 0.3
2015-Jan-12 03:09N 41°20' E 002°10'6 6.2
2015-Jan-12 02:13N 41°19' E 002°18'36 9.6
2015-Jan-11 22:27N 41°34' E 003°02'46 9.2
2015-Jan-11 17:25N 42°09' E 003°42'6 5.9
2015-Jan-11 16:26N 42°11' E 003°49'  

Dump ship's entire track history